Time;durP1;ratioP1;P1;durP2;ratioP2;P2;SDS_P1;SDS_P2;PMS_P1;PMS_P2;Temp;Humidity;BMP_temperature;BMP_pressure;BME280_temperature;BME280_humidity;BME280_pressure;Samples;Min_cycle;Max_cycle;Signal;HPM_P1;HPM_P2
2023/12/11 00:01:12;;;;;;;13.85;6.07;;;;;;;3.86;75.74;93883.75;5077322;28;20029;-81
2023/12/11 00:03:37;;;;;;;13.73;5.85;;;;;;;3.86;75.63;93881.13;5065316;28;20029;-75
2023/12/11 00:06:03;;;;;;;12.63;6.38;;;;;;;3.85;75.66;93882.16;5064998;28;20028;-74
2023/12/11 00:08:29;;;;;;;11.95;6.13;;;;;;;3.87;75.56;93885.31;5064988;28;20313;-74
2023/12/11 00:10:54;;;;;;;14.10;6.05;;;;;;;3.88;75.31;93890.34;5064692;28;20101;-75
2023/12/11 00:13:20;;;;;;;12.38;6.53;;;;;;;3.88;75.22;93886.91;5064681;28;20021;-75
2023/12/11 00:15:45;;;;;;;12.07;5.35;;;;;;;3.77;75.74;93897.50;5064750;28;20188;-74
2023/12/11 00:18:11;;;;;;;12.55;5.80;;;;;;;3.59;76.54;93896.22;5064598;28;20025;-75
2023/12/11 00:20:37;;;;;;;12.85;6.63;;;;;;;3.45;77.31;93897.06;5064764;28;20024;-75
2023/12/11 00:23:03;;;;;;;10.07;5.55;;;;;;;3.36;77.73;93902.09;5064566;28;20071;-75
2023/12/11 00:25:28;;;;;;;13.07;6.40;;;;;;;3.34;78.22;93891.81;5063324;28;20021;-74
2023/12/11 00:27:53;;;;;;;11.25;5.65;;;;;;;3.32;78.70;93891.31;5064627;28;20049;-75
2023/12/11 00:30:19;;;;;;;13.48;6.25;;;;;;;3.29;78.86;93899.72;5064421;28;20028;-75
2023/12/11 00:32:45;;;;;;;12.68;6.20;;;;;;;3.38;78.99;93900.78;5064222;28;20029;-74
2023/12/11 00:35:10;;;;;;;13.38;7.00;;;;;;;3.36;79.14;93908.16;5064311;28;20264;-73
2023/12/11 00:37:36;;;;;;;11.23;6.28;;;;;;;3.34;79.38;93905.00;5064413;28;20126;-74
2023/12/11 00:40:02;;;;;;;14.63;6.88;;;;;;;3.34;79.48;93899.72;5064473;28;20337;-74
2023/12/11 00:42:27;;;;;;;14.38;6.47;;;;;;;3.39;79.02;93898.91;5064013;28;20373;-74
2023/12/11 00:44:53;;;;;;;10.38;5.45;;;;;;;3.41;79.42;93912.63;5064016;28;20025;-74
2023/12/11 00:47:18;;;;;;;13.95;6.63;;;;;;;3.41;79.50;93909.97;5064154;28;20025;-74
2023/12/11 00:49:44;;;;;;;11.18;5.82;;;;;;;3.46;79.51;93914.44;5064297;28;20230;-74
2023/12/11 00:52:09;;;;;;;15.35;7.05;;;;;;;3.47;79.52;93910.78;5064110;28;20052;-74
2023/12/11 00:54:35;;;;;;;12.73;6.35;;;;;;;3.48;79.30;93904.44;5064162;28;20021;-74
2023/12/11 00:57:00;;;;;;;12.05;6.00;;;;;;;3.49;79.51;93906.03;5063862;28;20373;-74
2023/12/11 00:59:26;;;;;;;13.32;6.47;;;;;;;3.55;79.41;93918.91;5063894;28;20021;-74
2023/12/11 01:01:51;;;;;;;12.57;6.80;;;;;;;3.63;79.36;93912.31;5063749;28;20067;-73
2023/12/11 01:04:17;;;;;;;11.88;6.35;;;;;;;3.70;79.61;93906.75;5063423;28;20105;-74
2023/12/11 01:06:42;;;;;;;11.15;6.15;;;;;;;3.76;79.44;93900.41;5062619;28;20021;-74
2023/12/11 01:09:08;;;;;;;13.07;6.10;;;;;;;3.80;78.86;93907.50;5063720;28;20047;-74
2023/12/11 01:11:33;;;;;;;10.82;6.15;;;;;;;3.82;78.61;93904.59;5063676;28;20017;-74
2023/12/11 01:13:59;;;;;;;13.60;7.13;;;;;;;3.89;78.04;93907.75;5063632;28;20254;-74
2023/12/11 01:16:24;;;;;;;12.27;6.38;;;;;;;3.92;77.89;93903.78;5063530;28;20016;-74
2023/12/11 01:18:50;;;;;;;14.13;6.95;;;;;;;3.96;77.35;93899.53;5063688;28;20223;-75
2023/12/11 01:21:16;;;;;;;11.45;5.63;;;;;;;3.98;76.95;93898.22;5063702;28;20047;-75
2023/12/11 01:23:42;;;;;;;10.75;6.50;;;;;;;3.90;77.39;93890.84;5063411;28;20315;-73
2023/12/11 01:26:08;;;;;;;12.65;6.45;;;;;;;3.89;77.47;93896.38;5063345;28;20020;-73
2023/12/11 01:28:33;;;;;;;13.95;6.75;;;;;;;3.89;77.24;93891.13;5063621;28;20023;-72
2023/12/11 01:30:59;;;;;;;11.52;6.03;;;;;;;3.89;77.14;93886.66;5063388;28;20026;-72
2023/12/11 01:33:24;;;;;;;9.88;4.53;;;;;;;3.68;76.90;93891.19;5063050;28;20017;-74
2023/12/11 01:35:50;;;;;;;4.47;2.75;;;;;;;3.58;76.28;93889.41;5063259;28;20337;-73
2023/12/11 01:38:15;;;;;;;4.75;2.50;;;;;;;3.58;76.26;93888.59;5063058;28;20020;-73
2023/12/11 01:40:41;;;;;;;5.03;2.88;;;;;;;3.58;76.43;93892.03;5063212;28;20017;-73
2023/12/11 01:43:20;;;;;;;5.35;2.80;;;;;;;3.52;76.46;93892.28;5063249;28;20035;-73
2023/12/11 01:46:09;;;;;;;4.15;2.58;;;;;;;3.58;76.22;93885.94;5062791;28;20032;-73
2023/12/11 01:48:36;;;;;;;4.07;2.35;;;;;;;3.51;76.19;93882.81;5063130;28;20043;-73
2023/12/11 01:51:02;;;;;;;6.03;2.72;;;;;;;3.53;76.53;93880.72;5063212;28;20295;-72
2023/12/11 01:53:29;;;;;;;4.60;2.83;;;;;;;3.49;76.76;93867.28;5062936;28;20028;-73
2023/12/11 01:55:54;;;;;;;5.82;2.67;;;;;;;3.52;77.01;93877.28;5062898;28;20348;-73
2023/12/11 01:58:21;;;;;;;5.20;2.80;;;;;;;3.57;76.61;93876.47;5062689;28;20056;-73
2023/12/11 02:00:47;;;;;;;4.55;2.67;;;;;;;3.61;76.14;93866.97;5062879;28;20065;-73
2023/12/11 02:03:12;;;;;;;5.85;3.13;;;;;;;3.62;76.06;93876.44;5062824;28;20025;-73
2023/12/11 02:05:38;;;;;;;4.88;2.53;;;;;;;3.56;76.12;93880.16;5063003;28;20061;-73
2023/12/11 02:08:04;;;;;;;5.63;2.55;;;;;;;3.56;75.86;93872.25;5062576;28;20315;-74
2023/12/11 02:10:30;;;;;;;3.03;1.90;;;;;;;3.60;75.61;93868.03;5063156;28;20029;-73
2023/12/11 02:12:55;;;;;;;3.55;1.95;;;;;;;3.63;75.60;93859.59;5062829;28;20041;-73
2023/12/11 02:15:36;;;;;;;4.93;2.33;;;;;;;3.64;75.76;93857.75;5062849;28;20017;-73
2023/12/11 02:18:02;;;;;;;3.72;2.00;;;;;;;3.52;75.95;93848.31;5062637;28;20025;-74
2023/12/11 02:20:27;;;;;;;4.22;1.92;;;;;;;3.58;75.54;93854.31;5062519;28;20045;-73
2023/12/11 02:22:55;;;;;;;3.15;1.73;;;;;;;3.53;75.80;93859.63;5062851;28;20021;-74
2023/12/11 02:25:20;;;;;;;4.82;2.42;;;;;;;3.50;75.82;93863.59;5062593;28;20021;-73
2023/12/11 02:27:46;;;;;;;5.28;3.13;;;;;;;3.46;75.91;93859.09;5062570;28;20334;-73
2023/12/11 02:30:11;;;;;;;4.38;2.50;;;;;;;3.45;75.79;93860.19;5062528;28;20052;-73
2023/12/11 02:32:37;;;;;;;2.17;1.48;;;;;;;3.41;75.64;93863.34;5062460;28;20020;-73
2023/12/11 02:35:02;;;;;;;3.28;1.88;;;;;;;3.38;75.48;93863.09;5062715;28;20021;-72
2023/12/11 02:37:28;;;;;;;3.80;1.88;;;;;;;3.28;75.47;93868.38;5062618;28;20028;-72
2023/12/11 02:39:53;;;;;;;2.85;1.27;;;;;;;3.19;75.71;93870.75;5062684;28;20024;-73
2023/12/11 02:42:19;;;;;;;3.00;1.67;;;;;;;3.15;76.17;93880.25;5062737;28;20028;-71
2023/12/11 02:44:44;;;;;;;3.10;1.80;;;;;;;3.07;76.69;93878.16;5062155;28;20088;-71
2023/12/11 02:47:09;;;;;;;4.38;2.15;;;;;;;2.99;77.08;93872.38;5062333;28;20120;-72
2023/12/11 02:49:35;;;;;;;4.55;1.90;;;;;;;2.99;77.33;93877.66;5062596;28;20024;-74
2023/12/11 02:52:00;;;;;;;3.85;2.10;;;;;;;2.98;77.72;93878.69;5062578;28;20029;-73
2023/12/11 02:54:26;;;;;;;3.55;2.17;;;;;;;2.93;78.17;93868.19;5062328;28;20098;-74
2023/12/11 02:56:51;;;;;;;4.13;2.28;;;;;;;2.95;78.39;93873.97;5062002;28;20055;-74
2023/12/11 02:59:17;;;;;;;4.32;1.98;;;;;;;2.92;78.55;93863.94;5062282;28;20247;-73
2023/12/11 03:01:42;;;;;;;4.53;2.15;;;;;;;2.94;78.78;93872.38;5061275;28;20017;-73
2023/12/11 03:04:08;;;;;;;4.18;2.10;;;;;;;2.92;78.92;93863.94;5062245;28;20104;-73
2023/12/11 03:06:33;;;;;;;4.97;2.50;;;;;;;2.96;79.01;93862.38;5062519;28;20025;-73
2023/12/11 03:09:02;;;;;;;6.18;2.85;;;;;;;2.99;79.14;93872.38;5062104;28;20105;-73
2023/12/11 03:11:27;;;;;;;4.88;2.75;;;;;;;3.07;78.82;93868.41;5062158;28;20020;-73
2023/12/11 03:13:53;;;;;;;6.18;2.53;;;;;;;3.11;78.87;93866.81;5062273;28;20333;-72
2023/12/11 03:16:18;;;;;;;5.20;2.60;;;;;;;3.10;78.98;93875.00;5062241;28;20017;-73
2023/12/11 03:18:44;;;;;;;5.45;2.67;;;;;;;3.08;78.83;93863.94;5062187;28;20025;-73
2023/12/11 03:21:09;;;;;;;4.57;2.38;;;;;;;3.10;78.35;93865.25;5065692;28;20212;-73
2023/12/11 03:23:35;;;;;;;4.28;2.35;;;;;;;3.10;78.30;93861.84;5064505;28;20032;-73
2023/12/11 03:26:00;;;;;;;5.63;2.70;;;;;;;3.17;78.08;93857.06;5065840;28;20037;-73
2023/12/11 03:28:28;;;;;;;5.38;2.60;;;;;;;3.21;77.34;93858.13;5064623;28;20103;-73
2023/12/11 03:30:54;;;;;;;5.85;2.53;;;;;;;3.29;76.65;93865.47;5065546;28;20255;-73
2023/12/11 03:33:19;;;;;;;4.53;2.47;;;;;;;3.28;76.75;93858.66;5064228;28;20031;-73
2023/12/11 03:35:44;;;;;;;4.60;2.60;;;;;;;3.36;76.50;93858.09;5065382;28;20017;-73
2023/12/11 03:38:10;;;;;;;3.72;2.13;;;;;;;3.40;76.13;93864.41;5065527;28;20037;-73
2023/12/11 03:40:35;;;;;;;3.47;1.92;;;;;;;3.45;75.49;93860.97;5065461;28;20029;-73
2023/12/11 03:43:01;;;;;;;4.20;2.33;;;;;;;3.43;75.67;93857.81;5065717;28;20319;-74
2023/12/11 03:45:26;;;;;;;3.78;2.40;;;;;;;3.41;75.33;93865.19;5065196;28;20036;-72
2023/12/11 03:47:52;;;;;;;2.53;1.55;;;;;;;3.52;74.54;93863.31;5065435;28;20050;-73
2023/12/11 03:50:17;;;;;;;2.25;1.40;;;;;;;3.56;74.05;93856.44;5064283;28;20020;-74
2023/12/11 03:52:43;;;;;;;2.80;1.80;;;;;;;3.57;74.32;93865.94;5064295;28;20035;-74
2023/12/11 03:55:08;;;;;;;2.83;1.42;;;;;;;3.56;74.42;93859.06;5065147;28;20013;-75
2023/12/11 03:57:34;;;;;;;2.85;1.50;;;;;;;3.59;74.42;93858.56;5065169;28;20087;-73
2023/12/11 03:59:59;;;;;;;3.20;1.67;;;;;;;3.56;74.63;93869.63;5065360;28;20063;-74
2023/12/11 04:02:25;;;;;;;1.98;1.15;;;;;;;3.56;74.59;93874.88;5064961;28;20028;-74
2023/12/11 04:04:50;;;;;;;1.92;1.10;;;;;;;3.61;73.72;93878.31;5064852;28;20036;-75
2023/12/11 04:07:16;;;;;;;1.67;0.98;;;;;;;3.64;73.46;93865.66;5064894;28;20025;-74
2023/12/11 04:09:41;;;;;;;3.00;1.20;;;;;;;3.71;73.43;93866.94;5064867;28;20051;-74
2023/12/11 04:12:07;;;;;;;3.05;1.30;;;;;;;3.73;73.03;93859.56;5064772;28;20219;-74
2023/12/11 04:14:32;;;;;;;1.90;1.13;;;;;;;3.74;73.02;93855.84;5064992;28;20017;-75
2023/12/11 04:16:57;;;;;;;1.90;1.08;;;;;;;3.80;72.67;93853.97;5064524;28;20013;-74
2023/12/11 04:19:23;;;;;;;3.03;1.30;;;;;;;3.84;72.75;93860.28;5064865;28;20024;-74
2023/12/11 04:21:48;;;;;;;3.08;1.63;;;;;;;3.90;72.93;93863.72;5064945;28;20043;-74
2023/12/11 04:24:14;;;;;;;2.72;1.48;;;;;;;3.91;72.89;93860.00;5065027;28;20025;-73
2023/12/11 04:26:39;;;;;;;1.98;1.00;;;;;;;3.94;72.60;93870.78;5064656;28;20371;-74
2023/12/11 04:29:05;;;;;;;3.80;1.88;;;;;;;4.04;72.18;93858.63;5065046;28;20028;-73
2023/12/11 04:31:30;;;;;;;3.85;1.88;;;;;;;3.95;73.13;93864.47;5064707;28;20028;-74
2023/12/11 04:33:56;;;;;;;7.30;3.30;;;;;;;3.89;74.14;93870.03;5064740;28;20032;-74
2023/12/11 04:36:21;;;;;;;8.50;4.20;;;;;;;3.96;74.30;93876.59;5064806;28;20021;-74
2023/12/11 04:38:47;;;;;;;7.55;4.28;;;;;;;4.02;74.32;93866.81;5064850;28;20017;-75
2023/12/11 04:41:12;;;;;;;9.85;5.35;;;;;;;4.10;74.13;93871.50;5064614;28;20070;-75
2023/12/11 04:43:38;;;;;;;7.35;3.88;;;;;;;4.10;73.66;93878.66;5064596;28;20017;-75
2023/12/11 04:46:03;;;;;;;4.47;2.20;;;;;;;4.09;72.87;93877.06;5064647;28;20048;-74
2023/12/11 04:48:29;;;;;;;7.80;2.45;;;;;;;4.02;73.42;93862.31;5064571;28;20070;-74
2023/12/11 04:50:54;;;;;;;4.30;2.22;;;;;;;4.06;73.60;93867.84;5063374;28;20428;-73
2023/12/11 04:53:20;;;;;;;6.07;3.03;;;;;;;4.09;73.67;93882.34;5064353;28;20308;-73
2023/12/11 04:55:45;;;;;;;9.60;3.95;;;;;;;4.11;73.94;93886.31;5064401;28;20028;-73
2023/12/11 04:58:11;;;;;;;9.65;5.05;;;;;;;4.10;74.10;93882.06;5064177;28;20053;-73
2023/12/11 05:00:36;;;;;;;11.48;6.10;;;;;;;4.12;73.89;93882.59;5064318;28;20032;-73
2023/12/11 05:03:02;;;;;;;10.23;5.18;;;;;;;4.10;73.70;93879.44;5064266;28;20029;-73
2023/12/11 05:05:28;;;;;;;8.70;4.10;;;;;;;4.06;73.58;93873.13;5064141;28;20029;-74
2023/12/11 05:07:53;;;;;;;8.82;4.90;;;;;;;4.04;73.55;93867.31;5062761;28;20029;-74
2023/12/11 05:10:19;;;;;;;8.45;4.95;;;;;;;4.03;73.56;93871.03;5064084;28;20033;-74
2023/12/11 05:12:44;;;;;;;10.30;5.07;;;;;;;3.98;73.58;93876.31;5062849;28;20392;-74
2023/12/11 05:15:10;;;;;;;8.20;4.05;;;;;;;3.98;73.60;93881.59;5063857;28;20095;-74
2023/12/11 05:17:35;;;;;;;10.88;5.63;;;;;;;3.94;73.48;93876.06;5063961;28;20025;-74
2023/12/11 05:20:01;;;;;;;11.07;5.20;;;;;;;3.88;73.70;93869.25;5064133;28;20342;-74
2023/12/11 05:22:27;;;;;;;10.13;4.78;;;;;;;3.85;73.67;93882.97;5063735;28;20032;-74
2023/12/11 05:24:52;;;;;;;9.55;5.43;;;;;;;3.81;73.77;93892.50;5063462;28;20033;-73
2023/12/11 05:27:18;;;;;;;11.60;5.03;;;;;;;3.77;73.76;93892.22;5063098;28;20315;-73
2023/12/11 05:29:44;;;;;;;11.88;5.63;;;;;;;3.69;73.96;93889.38;5063559;28;20040;-73
2023/12/11 05:32:14;;;;;;;20.75;8.65;;;;;;;3.68;74.16;93893.03;5063234;28;20095;-74
2023/12/11 05:34:39;;;;;;;16.88;8.27;;;;;;;3.54;74.50;93890.19;5063310;28;20031;-73
2023/12/11 05:37:05;;;;;;;20.02;8.65;;;;;;;3.54;74.56;93893.63;5063291;28;20040;-73
2023/12/11 05:39:30;;;;;;;18.17;8.15;;;;;;;3.52;74.48;93884.38;5062401;28;20024;-73
2023/12/11 05:41:56;;;;;;;16.77;8.50;;;;;;;3.48;74.44;93894.69;5062654;28;20025;-73
2023/12/11 05:44:21;;;;;;;15.15;8.05;;;;;;;3.46;74.79;93896.81;5063371;28;20025;-74
2023/12/11 05:46:47;;;;;;;23.35;8.60;;;;;;;3.43;74.68;93910.50;5063179;28;20352;-74
2023/12/11 05:49:12;;;;;;;17.67;8.07;;;;;;;3.34;74.69;93904.22;5063129;28;20338;-74
2023/12/11 05:51:38;;;;;;;15.90;7.70;;;;;;;3.24;75.51;93907.66;5063101;28;20036;-74
2023/12/11 05:54:04;;;;;;;20.08;7.32;;;;;;;3.20;75.81;93914.50;5063237;28;20029;-74
2023/12/11 05:56:30;;;;;;;15.35;6.53;;;;;;;3.12;76.28;93915.81;5062771;28;20284;-74
2023/12/11 05:58:56;;;;;;;18.83;7.63;;;;;;;3.11;76.72;93916.06;5062855;28;20098;-74
2023/12/11 06:01:21;;;;;;;23.00;9.35;;;;;;;3.14;76.58;93923.47;5062805;28;20028;-74
2023/12/11 06:03:47;;;;;;;22.30;8.18;;;;;;;3.14;76.81;93921.59;5063003;28;20341;-74
2023/12/11 06:06:15;;;;;;;21.80;8.00;;;;;;;3.19;76.51;93918.19;5062648;28;20441;-74
2023/12/11 06:08:41;;;;;;;17.73;7.35;;;;;;;3.19;76.40;93908.41;5062890;28;20052;-74
2023/12/11 06:11:07;;;;;;;16.95;6.85;;;;;;;3.19;76.84;93905.00;5062650;28;20262;-73
2023/12/11 06:13:32;;;;;;;14.82;5.47;;;;;;;3.25;76.91;93908.44;5062821;28;20021;-73
2023/12/11 06:15:58;;;;;;;15.23;5.88;;;;;;;3.31;76.81;93905.50;5062646;28;20088;-73
2023/12/11 06:18:23;;;;;;;17.25;7.57;;;;;;;3.37;76.72;93915.00;5062550;28;20219;-74
2023/12/11 06:20:49;;;;;;;20.92;7.53;;;;;;;3.41;76.79;93916.03;5062566;28;20029;-74
2023/12/11 06:23:14;;;;;;;26.33;9.30;;;;;;;3.51;76.80;93915.22;5062522;28;20080;-73
2023/12/11 06:25:40;;;;;;;22.48;7.90;;;;;;;3.54;76.87;93924.44;5062538;28;20041;-74
2023/12/11 06:28:05;;;;;;;27.13;8.38;;;;;;;3.56;76.69;93914.41;5062876;28;20032;-74
2023/12/11 06:30:31;;;;;;;30.17;8.77;;;;;;;3.64;76.75;93921.78;5062640;28;20031;-73
2023/12/11 06:32:56;;;;;;;22.30;7.85;;;;;;;3.70;76.56;93918.06;5062590;28;20092;-73
2023/12/11 06:35:21;;;;;;;19.20;6.55;;;;;;;3.71;76.55;93910.97;5062905;28;20035;-74
2023/12/11 06:37:47;;;;;;;19.88;7.20;;;;;;;3.72;76.21;93900.13;5062458;28;20252;-74
2023/12/11 06:40:13;;;;;;;22.98;8.30;;;;;;;3.72;76.18;93910.69;5062388;28;20017;-74
2023/12/11 06:42:38;;;;;;;30.65;13.32;;;;;;;3.67;76.24;93908.09;5062349;28;20028;-74
2023/12/11 06:45:08;;;;;;;29.73;13.98;;;;;;;3.71;76.15;93909.13;5062707;28;20032;-74
2023/12/11 06:47:34;;;;;;;29.27;11.95;;;;;;;3.76;75.92;93913.59;5062503;28;20048;-76
2023/12/11 06:50:00;;;;;;;25.15;11.70;;;;;;;3.78;76.01;93920.16;5062565;28;20021;-75
2023/12/11 06:52:26;;;;;;;35.70;14.75;;;;;;;3.82;75.93;93921.19;5061120;28;20087;-71
2023/12/11 06:54:51;;;;;;;30.58;14.15;;;;;;;3.77;76.05;93915.97;5065883;28;20029;-71
2023/12/11 06:57:17;;;;;;;29.05;12.95;;;;;;;3.77;76.04;93918.59;5066207;28;20048;-71
2023/12/11 06:59:42;;;;;;;23.35;12.02;;;;;;;3.85;75.93;93929.63;5066388;28;20028;-71
2023/12/11 07:02:08;;;;;;;25.90;11.82;;;;;;;3.87;76.11;93932.78;5066212;28;20032;-71
2023/12/11 07:04:34;;;;;;;20.05;8.88;;;;;;;3.92;75.90;93941.47;5065123;28;20094;-72
2023/12/11 07:06:59;;;;;;;26.77;12.50;;;;;;;3.99;76.18;93944.63;5066664;28;20032;-76
2023/12/11 07:09:26;;;;;;;22.05;11.07;;;;;;;3.96;75.53;93947.00;5066315;28;20029;-77
2023/12/11 07:11:52;;;;;;;21.67;9.32;;;;;;;4.00;75.99;93945.41;5066076;28;20231;-75
2023/12/11 07:14:18;;;;;;;22.75;10.25;;;;;;;4.01;76.13;93949.66;5066129;28;20020;-75
2023/12/11 07:16:43;;;;;;;22.40;9.38;;;;;;;4.01;76.13;93949.66;5066192;28;20197;-77
2023/12/11 07:19:09;;;;;;;15.95;8.65;;;;;;;4.14;75.95;93958.81;5066103;28;20059;-76
2023/12/11 07:21:35;;;;;;;13.57;7.85;;;;;;;4.26;75.74;93955.88;5065871;28;20092;-75
2023/12/11 07:24:00;;;;;;;19.80;8.07;;;;;;;4.33;75.82;93961.63;5064847;28;20365;-74
2023/12/11 07:26:26;;;;;;;13.55;7.03;;;;;;;4.45;75.14;93964.75;5065786;28;20025;-75
2023/12/11 07:28:52;;;;;;;15.23;7.40;;;;;;;4.56;74.67;93960.19;5065767;28;20036;-75
2023/12/11 07:31:18;;;;;;;15.88;8.05;;;;;;;4.67;74.35;93955.66;5065500;28;20219;-76
2023/12/11 07:33:43;;;;;;;17.63;6.90;;;;;;;4.75;74.15;93963.78;5065510;28;20024;-74
2023/12/11 07:36:10;;;;;;;13.60;6.57;;;;;;;4.87;72.50;93968.75;5065676;28;20358;-77
2023/12/11 07:38:36;;;;;;;10.80;5.10;;;;;;;4.89;70.49;93971.13;5065769;28;20025;-76
2023/12/11 07:41:03;;;;;;;16.50;4.97;;;;;;;4.86;69.62;93974.28;5065426;28;20025;-74
2023/12/11 07:43:28;;;;;;;11.65;4.72;;;;;;;4.76;69.64;93981.22;5065130;28;20059;-74
2023/12/11 07:45:54;;;;;;;17.92;6.18;;;;;;;4.61;69.54;93974.16;5065044;28;20029;-73
2023/12/11 07:48:20;;;;;;;21.13;5.97;;;;;;;4.41;70.51;93969.78;5065121;28;20048;-70
2023/12/11 07:50:45;;;;;;;10.73;3.53;;;;;;;4.28;70.36;93986.19;5065123;28;20052;-72
2023/12/11 07:53:11;;;;;;;17.90;5.68;;;;;;;4.31;71.09;93971.66;5065173;28;20345;-73
2023/12/11 07:55:37;;;;;;;14.57;2.83;;;;;;;4.28;70.84;93977.50;5063396;28;20025;-73
2023/12/11 07:58:06;;;;;;;4.00;2.30;;;;;;;4.14;70.74;93969.38;5064281;28;20052;-73
2023/12/11 08:00:32;;;;;;;11.88;3.40;;;;;;;4.09;71.69;93978.09;5065203;28;20200;-72
2023/12/11 08:02:57;;;;;;;9.52;2.97;;;;;;;4.01;71.18;93974.16;5065074;28;20088;-72
2023/12/11 08:05:23;;;;;;;10.55;4.22;;;;;;;3.97;70.78;93969.69;5064217;28;20028;-73
2023/12/11 08:07:48;;;;;;;10.75;2.58;;;;;;;3.92;71.13;93964.44;5064932;28;20055;-73
2023/12/11 08:10:16;;;;;;;4.95;2.00;;;;;;;3.83;71.65;93969.47;5063812;28;20025;-73
2023/12/11 08:12:41;;;;;;;9.98;3.15;;;;;;;3.88;72.02;93976.56;5063620;28;20052;-72
2023/12/11 08:15:07;;;;;;;10.23;3.53;;;;;;;3.88;72.08;93960.75;5063539;28;20215;-72
2023/12/11 08:17:33;;;;;;;8.32;2.92;;;;;;;3.85;72.19;93982.38;5063624;28;20055;-71
2023/12/11 08:19:58;;;;;;;9.45;2.85;;;;;;;3.78;71.94;93964.97;5063497;28;20235;-71
2023/12/11 08:22:24;;;;;;;8.80;3.55;;;;;;;3.80;72.41;93975.25;5063512;28;20086;-71
2023/12/11 08:24:49;;;;;;;5.53;2.65;;;;;;;3.89;72.05;93970.22;5062321;28;20025;-72
2023/12/11 08:27:15;;;;;;;14.65;3.83;;;;;;;3.96;71.86;93976.03;5064441;28;20048;-71
2023/12/11 08:29:40;;;;;;;11.73;3.35;;;;;;;3.89;71.48;93980.78;5064618;28;20032;-71
2023/12/11 08:32:06;;;;;;;10.98;3.45;;;;;;;3.86;71.89;93989.22;5064392;28;20058;-71
2023/12/11 08:34:32;;;;;;;11.05;2.85;;;;;;;3.88;71.68;93987.13;5064467;28;20092;-72
2023/12/11 08:36:57;;;;;;;9.77;2.80;;;;;;;3.80;71.91;93994.50;5064455;28;20058;-72
2023/12/11 08:39:23;;;;;;;5.43;2.63;;;;;;;3.82;72.09;93978.44;5064384;28;20021;-72
2023/12/11 08:41:49;;;;;;;10.73;2.63;;;;;;;3.88;71.49;93969.44;5064371;28;20059;-72
2023/12/11 08:44:16;;;;;;;11.18;3.72;;;;;;;3.94;71.25;93962.31;5064292;28;20104;-72
2023/12/11 08:46:43;;;;;;;5.00;3.05;;;;;;;3.90;71.39;93966.53;5064354;28;20016;-72
2023/12/11 08:49:09;;;;;;;7.53;3.00;;;;;;;3.90;71.76;93969.19;5064012;28;20024;-73
2023/12/11 08:51:34;;;;;;;11.48;4.30;;;;;;;3.99;71.26;93962.31;5064335;28;20080;-73
2023/12/11 08:54:00;;;;;;;13.68;3.95;;;;;;;4.02;71.25;93959.91;5064764;28;20131;-72
2023/12/11 08:56:25;;;;;;;11.07;4.68;;;;;;;4.05;70.84;93961.25;5064529;28;20029;-72
2023/12/11 08:58:51;;;;;;;11.07;3.75;;;;;;;4.08;71.03;93954.63;5064155;28;20412;-72
2023/12/11 09:01:17;;;;;;;10.50;4.10;;;;;;;4.19;71.28;93948.22;5063720;28;20021;-72
2023/12/11 09:03:44;;;;;;;13.60;4.28;;;;;;;4.27;71.93;93947.66;5064475;28;20071;-73
2023/12/11 09:06:15;;;;;;;8.57;3.80;;;;;;;4.40;71.17;93946.31;5063997;28;20036;-72
2023/12/11 09:08:41;;;;;;;10.53;4.00;;;;;;;4.46;71.27;93945.22;5063580;28;20235;-72
2023/12/11 09:11:06;;;;;;;11.75;4.03;;;;;;;4.59;70.54;93949.09;5064242;28;20021;-72
2023/12/11 09:13:31;;;;;;;9.30;3.50;;;;;;;4.77;69.30;93934.47;5063926;28;20028;-72
2023/12/11 09:15:57;;;;;;;11.27;4.00;;;;;;;4.88;68.84;93930.69;5063578;28;20317;-73
2023/12/11 09:18:23;;;;;;;7.10;3.55;;;;;;;4.97;68.99;93921.13;5062987;28;20032;-72
2023/12/11 09:20:48;;;;;;;8.93;4.18;;;;;;;5.13;69.09;93915.72;5063761;28;20100;-72
2023/12/11 09:23:14;;;;;;;8.32;3.33;;;;;;;5.14;68.40;93918.06;5063826;28;20077;-72
2023/12/11 09:25:40;;;;;;;9.48;3.72;;;;;;;5.35;68.00;93917.91;5063476;28;20032;-71
2023/12/11 09:28:06;;;;;;;7.72;3.80;;;;;;;5.55;67.56;93915.06;5063319;28;20024;-72
2023/12/11 09:30:31;;;;;;;13.32;4.50;;;;;;;5.78;67.36;93918.00;5063655;28;20024;-72
2023/12/11 09:32:56;;;;;;;15.57;4.47;;;;;;;5.96;67.47;93916.50;5063708;28;20028;-72
2023/12/11 09:35:22;;;;;;;11.93;3.67;;;;;;;6.16;66.66;93910.19;5063552;28;20316;-72
2023/12/11 09:37:47;;;;;;;15.27;3.60;;;;;;;6.30;65.52;93905.78;5063395;28;20016;-72
2023/12/11 09:40:13;;;;;;;19.75;3.63;;;;;;;6.46;64.06;93898.44;5063390;28;20100;-72
2023/12/11 09:42:43;;;;;;;6.75;3.40;;;;;;;6.52;63.38;93892.00;5063458;28;20067;-71
2023/12/11 09:45:10;;;;;;;11.60;4.82;;;;;;;6.60;63.53;93899.28;5062963;28;20033;-72
2023/12/11 09:47:43;;;;;;;8.52;3.67;;;;;;;6.68;62.75;93907.69;5063230;28;20126;-72
2023/12/11 09:50:08;;;;;;;8.98;4.07;;;;;;;6.75;62.52;93905.44;5063434;28;20036;-71
2023/12/11 09:52:39;;;;;;;7.32;3.47;;;;;;;6.83;62.07;93896.84;5063240;28;20219;-72
2023/12/11 09:55:06;;;;;;;10.13;4.18;;;;;;;6.89;62.11;93893.03;5063630;28;20039;-72
2023/12/11 09:57:32;;;;;;;9.30;3.35;;;;;;;6.91;61.74;93882.94;5063243;28;20043;-72
2023/12/11 09:59:58;;;;;;;10.80;4.05;;;;;;;6.94;61.78;93882.38;5062939;28;20032;-72
2023/12/11 10:02:25;;;;;;;8.93;3.60;;;;;;;7.01;61.85;93882.78;5063065;28;20024;-73
2023/12/11 10:05:10;;;;;;;11.50;3.90;;;;;;;7.12;60.98;93874.66;5062618;28;20036;-72
2023/12/11 10:07:41;;;;;;;9.38;4.03;;;;;;;7.13;60.86;93865.66;5063077;28;20028;-73
2023/12/11 10:10:26;;;;;;;7.18;3.50;;;;;;;7.19;60.75;93865.25;5062643;28;20071;-72
2023/12/11 10:12:53;;;;;;;9.15;3.15;;;;;;;7.15;60.63;93863.50;5063012;28;20036;-72
2023/12/11 10:15:21;;;;;;;14.73;4.30;;;;;;;7.23;61.15;93873.44;5062851;28;20027;-72
2023/12/11 10:17:46;;;;;;;15.60;4.00;;;;;;;7.30;61.01;93873.03;5062839;28;20024;-72
2023/12/11 10:20:16;;;;;;;13.25;3.85;;;;;;;7.36;59.99;93872.66;5062749;28;20219;-72
2023/12/11 10:22:41;;;;;;;7.45;3.70;;;;;;;7.44;59.80;93879.94;5062842;28;20020;-72
2023/12/11 10:25:07;;;;;;;6.72;3.30;;;;;;;7.50;58.99;93869.25;5062779;28;20028;-72
2023/12/11 10:27:33;;;;;;;10.27;3.70;;;;;;;7.46;59.25;93860.31;5063120;28;20024;-72
2023/12/11 10:30:12;;;;;;;9.25;3.78;;;;;;;7.52;60.27;93869.75;5066976;28;20091;-72
2023/12/11 10:32:38;;;;;;;7.28;3.58;;;;;;;7.58;59.24;93848.13;5066967;28;20020;-75
2023/12/11 10:35:05;;;;;;;15.52;3.97;;;;;;;7.63;58.89;93844.59;5067927;28;20021;-88
2023/12/11 10:38:12;;;;;;;11.98;3.55;;;;;;;7.68;58.56;93851.69;5067830;28;20016;-88
2023/12/11 10:41:27;;;;;;;9.18;3.50;;;;;;;7.72;58.40;93842.84;5067498;28;20043;-87
2023/12/11 10:43:53;;;;;;;16.80;4.40;;;;;;;7.72;58.26;93847.38;5067413;28;20017;-86
2023/12/11 10:46:19;;;;;;;12.10;4.30;;;;;;;7.79;58.28;93853.06;5065976;28;20021;-86
2023/12/11 10:48:44;;;;;;;10.30;3.72;;;;;;;7.83;58.28;93854.81;5065837;28;20048;-86
2023/12/11 10:51:10;;;;;;;7.00;3.58;;;;;;;7.89;57.69;93846.75;5066747;28;20047;-86
2023/12/11 10:53:35;;;;;;;12.60;3.72;;;;;;;7.86;57.74;93844.69;5066653;28;20307;-86
2023/12/11 10:56:02;;;;;;;14.05;4.38;;;;;;;7.92;58.06;93836.34;5064957;28;20029;-86
2023/12/11 10:58:28;;;;;;;10.23;3.53;;;;;;;8.01;58.15;93839.09;5066711;28;20064;-87
2023/12/11 11:00:56;;;;;;;6.97;3.30;;;;;;;8.05;57.51;93837.41;5065333;28;20239;-87
2023/12/11 11:03:23;;;;;;;17.88;3.33;;;;;;;8.08;57.22;93839.47;5066006;28;20044;-87
2023/12/11 11:05:50;;;;;;;10.10;4.13;;;;;;;8.14;56.42;93840.13;5065807;28;20024;-86
2023/12/11 11:08:25;;;;;;;13.40;3.83;;;;;;;8.09;57.17;93824.34;5066208;28;20100;-86
2023/12/11 11:11:06;;;;;;;9.05;4.30;;;;;;;8.11;57.11;93822.16;5066358;28;20092;-85
2023/12/11 11:14:02;;;;;;;16.45;4.70;;;;;;;8.17;56.80;93821.75;5067029;28;20058;-86
2023/12/11 11:16:56;;;;;;;12.88;4.00;;;;;;;8.26;57.85;93813.09;5055260;28;20095;-86
2023/12/11 11:19:24;;;;;;;9.07;3.63;;;;;;;8.34;57.45;93801.75;5066701;28;20036;-87
2023/12/11 11:22:04;;;;;;;8.65;3.75;;;;;;;8.42;57.10;93801.06;5066363;28;20071;-87
2023/12/11 11:24:32;;;;;;;8.23;3.92;;;;;;;8.48;56.68;93793.78;5066575;28;20115;-86
2023/12/11 11:27:01;;;;;;;9.82;3.83;;;;;;;8.58;56.31;93810.25;5066178;28;20025;-86
2023/12/11 11:29:43;;;;;;;13.38;4.55;;;;;;;8.69;56.60;93816.13;5066697;28;20062;-86
2023/12/11 11:32:10;;;;;;;17.50;4.78;;;;;;;8.78;56.21;93818.84;5066182;28;20024;-87
2023/12/11 11:34:42;;;;;;;22.88;5.30;;;;;;;8.88;56.20;93813.28;5066640;28;20025;-86